Sierra Vista, AZ (85635)

12:36 PM MST on December 25, 2014 (GMT -0700)
Oakmont | Change Station
CLOSE
Current Station
Personal Weather Station
Location: Sierra Vista, AZ
Elevation: 4550 ft
Nearby Weather Stations
Active Advisory: Wind Advisory

Elev 4550 ft 31.53 °N, 110.26 °W | Updated 2 seconds ago

Clear
Clear
59.4 °F
Feels Like 59.4 °F
N
24.2
Wind Variable Wind from South
Gusts 24.2 mph

Today
High -- | Low -- °F
--% Chance of Precip.
Yesterday
High -- | Low -- °F
Precip. -- in
7:18 AM 5:24 PM
Waxing Crescent, 18% visible
Pressure 29.67 in
Visibility 10.0 miles
Clouds Clear
Dew Point 19 °F
Humidity 21%
Rainfall 0.00 in
Snow Depth Not available.
UV 4 out of 12
Pollen 6.60 out of 12
Air Quality Not available.
Flu Activity Not available.
METAR KFHU 251856Z AUTO 20020G38KT 10SM CLR 16/M11 A2975 RMK AO2 PK WND 21041/1806 SLP045 T01561111 $

More Conditions Fewer Conditions

Pressure 29.67 in
Visibility 10.0 miles
Clouds Clear
Dew Point 19 °F
Humidity 21%
Rainfall 0.00 in
Snow Depth Not available.
UV 4 out of 12
Pollen 6.60 out of 12
Air Quality Not available.
Flu Activity Not available.
METAR KFHU 251856Z AUTO 20020G38KT 10SM CLR 16/M11 A2975 RMK AO2 PK WND 21041/1806 SLP045 T01561111 $

More Conditions Fewer Conditions

10-Day Weather Forecast

Almanac

Astronomy

Dec. 25, 2014 Rise Set
Actual Time
Civil Twilight
Nautical Twilight
Astronomical Twilight
Moon
Length of Visible Light
Length of Day
Tomorrow will be .
, % of the Moon is Illuminated

Today's Extremes

State Highs State Lows

Community

WunderPhotos

Upload Photos

1,780,374 photos uploaded!

WunderBlogs® & News

Nearby

Air Quality

  Air Quality AQ Index Pollutant
Not available.

Snow Depth

Station Depth Elevation

Earthquake Activity

City Distance Mag. Time & Date
Minimum magnitude displayed is 2.5.

Coastal Water Temperatures

Place Temperature

Nearby Weather Stations